sensor_id;sensor_type;location;lat;lon;timestamp;temperature;humidity
21481;DHT22;10902;48.158;8.634;2023-04-24T00:01:39;8.90;99.90
21481;DHT22;10902;48.158;8.634;2023-04-24T00:04:05;8.90;99.90
21481;DHT22;10902;48.158;8.634;2023-04-24T00:06:32;8.90;99.90
21481;DHT22;10902;48.158;8.634;2023-04-24T00:09:01;8.90;99.90
21481;DHT22;10902;48.158;8.634;2023-04-24T00:11:28;8.90;99.90
21481;DHT22;10902;48.158;8.634;2023-04-24T00:13:54;8.90;99.90
21481;DHT22;10902;48.158;8.634;2023-04-24T00:16:19;8.90;99.90
21481;DHT22;10902;48.158;8.634;2023-04-24T00:18:45;8.90;99.90
21481;DHT22;10902;48.158;8.634;2023-04-24T00:21:13;8.90;99.90
21481;DHT22;10902;48.158;8.634;2023-04-24T00:23:38;8.90;99.90
21481;DHT22;10902;48.158;8.634;2023-04-24T00:26:04;8.90;99.90
21481;DHT22;10902;48.158;8.634;2023-04-24T00:28:30;8.90;99.90
21481;DHT22;10902;48.158;8.634;2023-04-24T00:30:55;8.80;99.90
21481;DHT22;10902;48.158;8.634;2023-04-24T00:33:21;8.80;99.90
21481;DHT22;10902;48.158;8.634;2023-04-24T00:35:47;8.80;99.90
21481;DHT22;10902;48.158;8.634;2023-04-24T00:38:12;8.80;99.90
21481;DHT22;10902;48.158;8.634;2023-04-24T00:40:38;8.80;99.90
21481;DHT22;10902;48.158;8.634;2023-04-24T00:43:03;8.80;99.90
21481;DHT22;10902;48.158;8.634;2023-04-24T00:45:29;8.70;99.90
21481;DHT22;10902;48.158;8.634;2023-04-24T00:47:57;8.80;99.90
21481;DHT22;10902;48.158;8.634;2023-04-24T00:50:23;8.80;99.90
21481;DHT22;10902;48.158;8.634;2023-04-24T00:52:49;8.80;99.90
21481;DHT22;10902;48.158;8.634;2023-04-24T00:55:16;8.70;99.90
21481;DHT22;10902;48.158;8.634;2023-04-24T00:57:42;8.70;99.90
21481;DHT22;10902;48.158;8.634;2023-04-24T01:00:08;8.70;99.90
21481;DHT22;10902;48.158;8.634;2023-04-24T01:02:41;8.70;99.90
21481;DHT22;10902;48.158;8.634;2023-04-24T01:05:12;8.70;99.90
21481;DHT22;10902;48.158;8.634;2023-04-24T01:07:39;8.70;99.90
21481;DHT22;10902;48.158;8.634;2023-04-24T01:10:05;8.70;99.90
21481;DHT22;10902;48.158;8.634;2023-04-24T01:12:32;8.70;99.90
21481;DHT22;10902;48.158;8.634;2023-04-24T01:14:58;8.70;99.90
21481;DHT22;10902;48.158;8.634;2023-04-24T01:17:23;8.70;99.90
21481;DHT22;10902;48.158;8.634;2023-04-24T01:19:49;8.70;99.90
21481;DHT22;10902;48.158;8.634;2023-04-24T01:22:15;8.70;99.90
21481;DHT22;10902;48.158;8.634;2023-04-24T01:24:42;8.70;99.90
21481;DHT22;10902;48.158;8.634;2023-04-24T01:27:08;8.60;99.90
21481;DHT22;10902;48.158;8.634;2023-04-24T01:29:34;8.60;99.90
21481;DHT22;10902;48.158;8.634;2023-04-24T01:32:00;8.60;99.90
21481;DHT22;10902;48.158;8.634;2023-04-24T01:34:26;8.50;99.90
21481;DHT22;10902;48.158;8.634;2023-04-24T01:36:52;8.50;99.90
21481;DHT22;10902;48.158;8.634;2023-04-24T01:39:18;8.50;99.90
21481;DHT22;10902;48.158;8.634;2023-04-24T01:41:46;8.40;99.90
21481;DHT22;10902;48.158;8.634;2023-04-24T01:44:11;8.30;99.90
21481;DHT22;10902;48.158;8.634;2023-04-24T01:46:38;8.20;99.90
21481;DHT22;10902;48.158;8.634;2023-04-24T01:49:03;8.10;99.90
21481;DHT22;10902;48.158;8.634;2023-04-24T01:51:29;8.10;99.90
21481;DHT22;10902;48.158;8.634;2023-04-24T01:53:55;8.00;99.90
21481;DHT22;10902;48.158;8.634;2023-04-24T01:56:22;8.10;99.90
21481;DHT22;10902;48.158;8.634;2023-04-24T01:58:51;8.00;99.90
21481;DHT22;10902;48.158;8.634;2023-04-24T02:01:19;7.90;99.90
21481;DHT22;10902;48.158;8.634;2023-04-24T02:03:44;7.80;99.90
21481;DHT22;10902;48.158;8.634;2023-04-24T02:06:10;7.80;99.90
21481;DHT22;10902;48.158;8.634;2023-04-24T02:08:36;7.80;99.90
21481;DHT22;10902;48.158;8.634;2023-04-24T02:11:01;7.70;99.90
21481;DHT22;10902;48.158;8.634;2023-04-24T02:13:28;7.70;99.90
21481;DHT22;10902;48.158;8.634;2023-04-24T02:15:53;7.70;99.90
21481;DHT22;10902;48.158;8.634;2023-04-24T02:18:19;7.60;99.90
21481;DHT22;10902;48.158;8.634;2023-04-24T02:20:45;7.60;99.90
21481;DHT22;10902;48.158;8.634;2023-04-24T02:23:10;7.60;99.90
21481;DHT22;10902;48.158;8.634;2023-04-24T02:25:36;7.60;99.90
21481;DHT22;10902;48.158;8.634;2023-04-24T02:28:02;7.60;99.90
21481;DHT22;10902;48.158;8.634;2023-04-24T02:30:28;7.60;99.90
21481;DHT22;10902;48.158;8.634;2023-04-24T02:32:54;7.60;99.90
21481;DHT22;10902;48.158;8.634;2023-04-24T02:35:45;7.60;99.90
21481;DHT22;10902;48.158;8.634;2023-04-24T02:38:11;7.60;99.90
21481;DHT22;10902;48.158;8.634;2023-04-24T02:40:37;7.60;99.90
21481;DHT22;10902;48.158;8.634;2023-04-24T02:43:02;7.60;99.90
21481;DHT22;10902;48.158;8.634;2023-04-24T02:45:28;7.60;99.90
21481;DHT22;10902;48.158;8.634;2023-04-24T02:47:53;7.70;99.90
21481;DHT22;10902;48.158;8.634;2023-04-24T02:50:19;7.70;99.90
21481;DHT22;10902;48.158;8.634;2023-04-24T02:52:44;7.70;99.90
21481;DHT22;10902;48.158;8.634;2023-04-24T02:55:10;7.70;99.90
21481;DHT22;10902;48.158;8.634;2023-04-24T02:57:35;7.70;99.90
21481;DHT22;10902;48.158;8.634;2023-04-24T03:00:01;7.60;99.90
21481;DHT22;10902;48.158;8.634;2023-04-24T03:02:28;7.60;99.90
21481;DHT22;10902;48.158;8.634;2023-04-24T03:04:53;7.60;99.90
21481;DHT22;10902;48.158;8.634;2023-04-24T03:07:20;7.60;99.90
21481;DHT22;10902;48.158;8.634;2023-04-24T03:09:46;7.50;99.90
21481;DHT22;10902;48.158;8.634;2023-04-24T03:12:12;7.50;99.90
21481;DHT22;10902;48.158;8.634;2023-04-24T03:14:38;7.50;99.90
21481;DHT22;10902;48.158;8.634;2023-04-24T03:17:03;7.50;99.90
21481;DHT22;10902;48.158;8.634;2023-04-24T03:19:29;7.50;99.90
21481;DHT22;10902;48.158;8.634;2023-04-24T03:21:55;7.50;99.90
21481;DHT22;10902;48.158;8.634;2023-04-24T03:24:20;7.50;99.90
21481;DHT22;10902;48.158;8.634;2023-04-24T03:26:46;7.50;99.90
21481;DHT22;10902;48.158;8.634;2023-04-24T03:29:11;7.40;99.90
21481;DHT22;10902;48.158;8.634;2023-04-24T03:31:37;7.40;99.90
21481;DHT22;10902;48.158;8.634;2023-04-24T03:34:03;7.40;99.90
21481;DHT22;10902;48.158;8.634;2023-04-24T03:36:28;7.40;99.90
21481;DHT22;10902;48.158;8.634;2023-04-24T03:38:54;7.40;99.90
21481;DHT22;10902;48.158;8.634;2023-04-24T03:41:19;7.40;99.90
21481;DHT22;10902;48.158;8.634;2023-04-24T03:43:45;7.30;99.90
21481;DHT22;10902;48.158;8.634;2023-04-24T03:46:11;7.30;99.90
21481;DHT22;10902;48.158;8.634;2023-04-24T03:48:36;7.30;99.90
21481;DHT22;10902;48.158;8.634;2023-04-24T03:51:02;7.30;99.90
21481;DHT22;10902;48.158;8.634;2023-04-24T03:53:27;7.30;99.90
21481;DHT22;10902;48.158;8.634;2023-04-24T03:55:53;7.40;99.90
21481;DHT22;10902;48.158;8.634;2023-04-24T03:58:19;7.30;99.90
21481;DHT22;10902;48.158;8.634;2023-04-24T04:00:44;7.30;99.90
21481;DHT22;10902;48.158;8.634;2023-04-24T04:03:12;7.40;99.90
21481;DHT22;10902;48.158;8.634;2023-04-24T04:05:39;7.40;99.90
21481;DHT22;10902;48.158;8.634;2023-04-24T04:08:05;7.40;99.90
21481;DHT22;10902;48.158;8.634;2023-04-24T04:10:31;7.40;99.90
21481;DHT22;10902;48.158;8.634;2023-04-24T04:12:56;7.30;99.90
21481;DHT22;10902;48.158;8.634;2023-04-24T04:15:22;7.30;99.90
21481;DHT22;10902;48.158;8.634;2023-04-24T04:17:47;7.30;99.90
21481;DHT22;10902;48.158;8.634;2023-04-24T04:20:13;7.30;99.90
21481;DHT22;10902;48.158;8.634;2023-04-24T04:22:39;7.30;99.90
21481;DHT22;10902;48.158;8.634;2023-04-24T04:25:05;7.30;99.90
21481;DHT22;10902;48.158;8.634;2023-04-24T04:27:31;7.30;99.90
21481;DHT22;10902;48.158;8.634;2023-04-24T04:29:58;7.40;99.90
21481;DHT22;10902;48.158;8.634;2023-04-24T04:32:26;7.40;99.90
21481;DHT22;10902;48.158;8.634;2023-04-24T04:34:52;7.40;99.90
21481;DHT22;10902;48.158;8.634;2023-04-24T04:37:19;7.40;99.90
21481;DHT22;10902;48.158;8.634;2023-04-24T04:39:44;7.30;99.90
21481;DHT22;10902;48.158;8.634;2023-04-24T04:42:10;6.60;99.90
21481;DHT22;10902;48.158;8.634;2023-04-24T04:44:35;6.20;99.90
21481;DHT22;10902;48.158;8.634;2023-04-24T04:47:01;6.00;99.90
21481;DHT22;10902;48.158;8.634;2023-04-24T04:49:33;5.80;99.90
21481;DHT22;10902;48.158;8.634;2023-04-24T04:51:59;5.70;99.90
21481;DHT22;10902;48.158;8.634;2023-04-24T04:54:25;5.60;99.90
21481;DHT22;10902;48.158;8.634;2023-04-24T04:56:51;5.60;99.90
21481;DHT22;10902;48.158;8.634;2023-04-24T04:59:16;5.60;99.90
21481;DHT22;10902;48.158;8.634;2023-04-24T05:01:42;5.50;99.90
21481;DHT22;10902;48.158;8.634;2023-04-24T05:04:08;5.50;99.90
21481;DHT22;10902;48.158;8.634;2023-04-24T05:06:33;5.50;99.90
21481;DHT22;10902;48.158;8.634;2023-04-24T05:08:59;5.50;99.90
21481;DHT22;10902;48.158;8.634;2023-04-24T05:11:24;5.50;99.90
21481;DHT22;10902;48.158;8.634;2023-04-24T05:13:50;5.50;99.90
21481;DHT22;10902;48.158;8.634;2023-04-24T05:16:15;5.60;99.90
21481;DHT22;10902;48.158;8.634;2023-04-24T05:18:41;5.70;99.90
21481;DHT22;10902;48.158;8.634;2023-04-24T05:21:06;5.70;99.90
21481;DHT22;10902;48.158;8.634;2023-04-24T05:23:32;5.90;99.90
21481;DHT22;10902;48.158;8.634;2023-04-24T05:25:58;5.90;99.90
21481;DHT22;10902;48.158;8.634;2023-04-24T05:28:23;5.80;99.90
21481;DHT22;10902;48.158;8.634;2023-04-24T05:30:54;5.80;99.90
21481;DHT22;10902;48.158;8.634;2023-04-24T05:33:20;5.80;99.90
21481;DHT22;10902;48.158;8.634;2023-04-24T05:35:46;5.90;99.90
21481;DHT22;10902;48.158;8.634;2023-04-24T05:38:12;5.90;99.90
21481;DHT22;10902;48.158;8.634;2023-04-24T05:40:38;6.00;99.90
21481;DHT22;10902;48.158;8.634;2023-04-24T05:43:04;6.00;99.90
21481;DHT22;10902;48.158;8.634;2023-04-24T05:45:30;6.00;99.90
21481;DHT22;10902;48.158;8.634;2023-04-24T05:47:55;5.90;99.90
21481;DHT22;10902;48.158;8.634;2023-04-24T05:50:21;6.00;99.90
21481;DHT22;10902;48.158;8.634;2023-04-24T05:52:47;6.00;99.90
21481;DHT22;10902;48.158;8.634;2023-04-24T05:55:12;6.00;99.90
21481;DHT22;10902;48.158;8.634;2023-04-24T05:57:38;6.20;99.90
21481;DHT22;10902;48.158;8.634;2023-04-24T06:00:05;6.40;99.90
21481;DHT22;10902;48.158;8.634;2023-04-24T06:02:31;6.80;99.90
21481;DHT22;10902;48.158;8.634;2023-04-24T06:04:58;6.90;99.90
21481;DHT22;10902;48.158;8.634;2023-04-24T06:07:25;6.80;99.90
21481;DHT22;10902;48.158;8.634;2023-04-24T06:09:52;6.90;99.90
21481;DHT22;10902;48.158;8.634;2023-04-24T06:12:17;6.90;99.90
21481;DHT22;10902;48.158;8.634;2023-04-24T06:14:43;7.10;99.90
21481;DHT22;10902;48.158;8.634;2023-04-24T06:17:14;7.30;99.90
21481;DHT22;10902;48.158;8.634;2023-04-24T06:19:42;7.60;99.90
21481;DHT22;10902;48.158;8.634;2023-04-24T06:22:11;7.70;99.90
21481;DHT22;10902;48.158;8.634;2023-04-24T06:24:42;8.00;99.90
21481;DHT22;10902;48.158;8.634;2023-04-24T06:27:08;8.20;99.90
21481;DHT22;10902;48.158;8.634;2023-04-24T06:29:33;7.90;99.90
21481;DHT22;10902;48.158;8.634;2023-04-24T06:31:59;7.40;99.90
21481;DHT22;10902;48.158;8.634;2023-04-24T06:34:25;7.10;99.90
21481;DHT22;10902;48.158;8.634;2023-04-24T06:36:51;7.00;99.90
21481;DHT22;10902;48.158;8.634;2023-04-24T06:39:16;7.00;99.90
21481;DHT22;10902;48.158;8.634;2023-04-24T06:41:42;7.10;99.90
21481;DHT22;10902;48.158;8.634;2023-04-24T06:44:07;7.10;99.90
21481;DHT22;10902;48.158;8.634;2023-04-24T06:46:33;7.00;99.90
21481;DHT22;10902;48.158;8.634;2023-04-24T06:48:58;6.90;99.90
21481;DHT22;10902;48.158;8.634;2023-04-24T06:51:24;7.00;99.90
21481;DHT22;10902;48.158;8.634;2023-04-24T06:53:52;7.10;99.90
21481;DHT22;10902;48.158;8.634;2023-04-24T06:56:17;7.20;99.90
21481;DHT22;10902;48.158;8.634;2023-04-24T06:58:43;7.30;99.90
21481;DHT22;10902;48.158;8.634;2023-04-24T07:01:10;7.40;99.90
21481;DHT22;10902;48.158;8.634;2023-04-24T07:03:35;7.60;99.90
21481;DHT22;10902;48.158;8.634;2023-04-24T07:06:01;7.70;99.90
21481;DHT22;10902;48.158;8.634;2023-04-24T07:08:29;7.90;99.90
21481;DHT22;10902;48.158;8.634;2023-04-24T07:10:56;8.00;99.90
21481;DHT22;10902;48.158;8.634;2023-04-24T07:13:22;8.20;99.90
21481;DHT22;10902;48.158;8.634;2023-04-24T07:15:48;8.20;99.90
21481;DHT22;10902;48.158;8.634;2023-04-24T07:18:16;8.30;99.90
21481;DHT22;10902;48.158;8.634;2023-04-24T07:20:42;8.30;99.90
21481;DHT22;10902;48.158;8.634;2023-04-24T07:23:07;8.10;99.90
21481;DHT22;10902;48.158;8.634;2023-04-24T07:25:33;8.00;99.90
21481;DHT22;10902;48.158;8.634;2023-04-24T07:27:59;8.10;99.90
21481;DHT22;10902;48.158;8.634;2023-04-24T07:30:24;8.30;99.90
21481;DHT22;10902;48.158;8.634;2023-04-24T07:32:50;8.40;99.90
21481;DHT22;10902;48.158;8.634;2023-04-24T07:35:16;8.50;99.90
21481;DHT22;10902;48.158;8.634;2023-04-24T07:37:41;8.50;99.90
21481;DHT22;10902;48.158;8.634;2023-04-24T07:40:12;8.40;99.90
21481;DHT22;10902;48.158;8.634;2023-04-24T07:42:38;8.50;99.90
21481;DHT22;10902;48.158;8.634;2023-04-24T07:45:04;8.40;99.90
21481;DHT22;10902;48.158;8.634;2023-04-24T07:47:29;8.30;99.90
21481;DHT22;10902;48.158;8.634;2023-04-24T07:49:55;8.30;99.90
21481;DHT22;10902;48.158;8.634;2023-04-24T07:52:21;8.50;99.90
21481;DHT22;10902;48.158;8.634;2023-04-24T07:54:47;8.50;99.90
21481;DHT22;10902;48.158;8.634;2023-04-24T07:57:12;8.40;99.90
21481;DHT22;10902;48.158;8.634;2023-04-24T07:59:39;8.20;99.90
21481;DHT22;10902;48.158;8.634;2023-04-24T08:02:04;8.30;99.90
21481;DHT22;10902;48.158;8.634;2023-04-24T08:04:31;8.10;99.90
21481;DHT22;10902;48.158;8.634;2023-04-24T08:06:58;7.90;99.90
21481;DHT22;10902;48.158;8.634;2023-04-24T08:09:24;7.60;99.90
21481;DHT22;10902;48.158;8.634;2023-04-24T08:11:49;7.60;99.90
21481;DHT22;10902;48.158;8.634;2023-04-24T08:14:15;7.20;99.90
21481;DHT22;10902;48.158;8.634;2023-04-24T08:16:41;7.10;99.90
21481;DHT22;10902;48.158;8.634;2023-04-24T08:19:07;7.10;99.90
21481;DHT22;10902;48.158;8.634;2023-04-24T08:21:32;7.30;99.90
21481;DHT22;10902;48.158;8.634;2023-04-24T08:23:58;7.80;99.90
21481;DHT22;10902;48.158;8.634;2023-04-24T08:26:23;8.40;99.90
21481;DHT22;10902;48.158;8.634;2023-04-24T08:28:50;8.90;99.90
21481;DHT22;10902;48.158;8.634;2023-04-24T08:31:15;9.10;99.90
21481;DHT22;10902;48.158;8.634;2023-04-24T08:33:41;8.80;99.90
21481;DHT22;10902;48.158;8.634;2023-04-24T08:36:07;9.10;99.90
21481;DHT22;10902;48.158;8.634;2023-04-24T08:38:33;9.30;99.90
21481;DHT22;10902;48.158;8.634;2023-04-24T08:41:00;9.80;99.90
21481;DHT22;10902;48.158;8.634;2023-04-24T08:43:26;10.00;99.90
21481;DHT22;10902;48.158;8.634;2023-04-24T08:45:54;9.50;99.90
21481;DHT22;10902;48.158;8.634;2023-04-24T08:48:22;9.70;99.90
21481;DHT22;10902;48.158;8.634;2023-04-24T08:50:50;9.70;99.90
21481;DHT22;10902;48.158;8.634;2023-04-24T08:53:15;9.80;99.90
21481;DHT22;10902;48.158;8.634;2023-04-24T08:55:41;9.20;99.90
21481;DHT22;10902;48.158;8.634;2023-04-24T08:58:09;8.80;99.90
21481;DHT22;10902;48.158;8.634;2023-04-24T09:00:35;8.60;99.90
21481;DHT22;10902;48.158;8.634;2023-04-24T09:03:02;7.90;99.90
21481;DHT22;10902;48.158;8.634;2023-04-24T09:05:30;6.90;99.90
21481;DHT22;10902;48.158;8.634;2023-04-24T09:07:56;6.40;99.90
21481;DHT22;10902;48.158;8.634;2023-04-24T09:10:24;6.30;99.90
21481;DHT22;10902;48.158;8.634;2023-04-24T09:12:51;6.10;99.90
21481;DHT22;10902;48.158;8.634;2023-04-24T09:15:20;6.10;99.90
21481;DHT22;10902;48.158;8.634;2023-04-24T09:17:46;6.10;99.90
21481;DHT22;10902;48.158;8.634;2023-04-24T09:20:12;6.20;99.90
21481;DHT22;10902;48.158;8.634;2023-04-24T09:22:38;6.30;99.90
21481;DHT22;10902;48.158;8.634;2023-04-24T09:25:06;6.50;99.90
21481;DHT22;10902;48.158;8.634;2023-04-24T09:27:33;6.50;99.90
21481;DHT22;10902;48.158;8.634;2023-04-24T09:29:59;6.60;99.90
21481;DHT22;10902;48.158;8.634;2023-04-24T09:32:25;6.80;99.90
21481;DHT22;10902;48.158;8.634;2023-04-24T09:37:45;7.30;99.90
21481;DHT22;10902;48.158;8.634;2023-04-24T09:40:19;8.00;99.90
21481;DHT22;10902;48.158;8.634;2023-04-24T09:42:53;8.70;99.90
21481;DHT22;10902;48.158;8.634;2023-04-24T09:45:20;8.70;99.90
21481;DHT22;10902;48.158;8.634;2023-04-24T09:47:45;8.30;99.90
21481;DHT22;10902;48.158;8.634;2023-04-24T09:50:15;8.40;99.90
21481;DHT22;10902;48.158;8.634;2023-04-24T09:52:46;8.70;99.90
21481;DHT22;10902;48.158;8.634;2023-04-24T09:55:20;9.10;99.90
21481;DHT22;10902;48.158;8.634;2023-04-24T09:57:50;8.80;99.90
21481;DHT22;10902;48.158;8.634;2023-04-24T10:00:22;8.50;99.90
21481;DHT22;10902;48.158;8.634;2023-04-24T10:03:07;8.30;99.90
21481;DHT22;10902;48.158;8.634;2023-04-24T10:05:37;8.50;99.90
21481;DHT22;10902;48.158;8.634;2023-04-24T10:08:11;8.80;99.90
21481;DHT22;10902;48.158;8.634;2023-04-24T10:10:46;9.60;99.90
21481;DHT22;10902;48.158;8.634;2023-04-24T10:13:13;9.20;99.90
21481;DHT22;10902;48.158;8.634;2023-04-24T10:15:41;9.20;99.90
21481;DHT22;10902;48.158;8.634;2023-04-24T10:18:08;8.70;99.90
21481;DHT22;10902;48.158;8.634;2023-04-24T10:20:36;8.50;99.90
21481;DHT22;10902;48.158;8.634;2023-04-24T10:23:03;7.90;99.90
21481;DHT22;10902;48.158;8.634;2023-04-24T10:25:35;7.70;99.90
21481;DHT22;10902;48.158;8.634;2023-04-24T10:28:01;7.90;99.90
21481;DHT22;10902;48.158;8.634;2023-04-24T10:30:31;8.20;99.90
21481;DHT22;10902;48.158;8.634;2023-04-24T10:33:01;8.40;99.90
21481;DHT22;10902;48.158;8.634;2023-04-24T10:35:40;9.00;99.90
21481;DHT22;10902;48.158;8.634;2023-04-24T10:38:12;9.20;99.90
21481;DHT22;10902;48.158;8.634;2023-04-24T10:40:37;9.70;99.90
21481;DHT22;10902;48.158;8.634;2023-04-24T10:43:07;10.10;99.90
21481;DHT22;10902;48.158;8.634;2023-04-24T10:45:36;9.60;99.90
21481;DHT22;10902;48.158;8.634;2023-04-24T10:48:03;9.10;99.90
21481;DHT22;10902;48.158;8.634;2023-04-24T10:50:41;8.90;99.90
21481;DHT22;10902;48.158;8.634;2023-04-24T10:53:15;9.10;99.90
21481;DHT22;10902;48.158;8.634;2023-04-24T10:58:11;8.90;99.90
21481;DHT22;10902;48.158;8.634;2023-04-24T11:00:41;8.70;99.90
21481;DHT22;10902;48.158;8.634;2023-04-24T11:05:52;8.70;99.90
21481;DHT22;10902;48.158;8.634;2023-04-24T11:08:30;8.90;99.90
21481;DHT22;10902;48.158;8.634;2023-04-24T11:11:30;9.40;99.90
21481;DHT22;10902;48.158;8.634;2023-04-24T11:19:09;10.30;99.90
21481;DHT22;10902;48.158;8.634;2023-04-24T11:27:05;9.50;99.90
21481;DHT22;10902;48.158;8.634;2023-04-24T11:29:48;9.30;99.90
21481;DHT22;10902;48.158;8.634;2023-04-24T11:32:40;9.60;99.90
21481;DHT22;10902;48.158;8.634;2023-04-24T11:37:36;9.40;99.90
21481;DHT22;10902;48.158;8.634;2023-04-24T11:40:02;9.30;99.90
21481;DHT22;10902;48.158;8.634;2023-04-24T11:42:39;9.00;99.90
21481;DHT22;10902;48.158;8.634;2023-04-24T11:45:30;9.50;99.90
21481;DHT22;10902;48.158;8.634;2023-04-24T11:47:55;9.50;99.90
21481;DHT22;10902;48.158;8.634;2023-04-24T11:50:23;9.60;99.90
21481;DHT22;10902;48.158;8.634;2023-04-24T11:52:51;9.50;99.90
21481;DHT22;10902;48.158;8.634;2023-04-24T11:57:44;9.00;99.90
21481;DHT22;10902;48.158;8.634;2023-04-24T12:00:21;8.80;99.90
21481;DHT22;10902;48.158;8.634;2023-04-24T12:02:48;9.20;99.90
21481;DHT22;10902;48.158;8.634;2023-04-24T12:05:21;9.50;99.90
21481;DHT22;10902;48.158;8.634;2023-04-24T12:07:47;9.60;99.90
21481;DHT22;10902;48.158;8.634;2023-04-24T12:10:12;9.90;99.90
21481;DHT22;10902;48.158;8.634;2023-04-24T12:12:38;9.50;99.90
21481;DHT22;10902;48.158;8.634;2023-04-24T12:15:08;9.20;99.90
21481;DHT22;10902;48.158;8.634;2023-04-24T12:17:35;9.70;99.90
21481;DHT22;10902;48.158;8.634;2023-04-24T12:20:06;9.50;99.90
21481;DHT22;10902;48.158;8.634;2023-04-24T12:22:52;9.90;99.90
21481;DHT22;10902;48.158;8.634;2023-04-24T12:25:23;10.60;99.90
21481;DHT22;10902;48.158;8.634;2023-04-24T12:30:20;11.60;99.90
21481;DHT22;10902;48.158;8.634;2023-04-24T12:32:48;10.90;99.90
21481;DHT22;10902;48.158;8.634;2023-04-24T12:35:19;11.30;99.90
21481;DHT22;10902;48.158;8.634;2023-04-24T12:37:46;12.10;99.90
21481;DHT22;10902;48.158;8.634;2023-04-24T12:40:12;12.70;99.90
21481;DHT22;10902;48.158;8.634;2023-04-24T12:42:47;13.50;99.90
21481;DHT22;10902;48.158;8.634;2023-04-24T12:45:14;12.90;99.90
21481;DHT22;10902;48.158;8.634;2023-04-24T12:47:40;12.40;99.90
21481;DHT22;10902;48.158;8.634;2023-04-24T12:50:12;11.40;99.90
21481;DHT22;10902;48.158;8.634;2023-04-24T12:52:38;11.70;99.90
21481;DHT22;10902;48.158;8.634;2023-04-24T12:55:05;10.70;99.90
21481;DHT22;10902;48.158;8.634;2023-04-24T12:57:33;11.00;99.90
21481;DHT22;10902;48.158;8.634;2023-04-24T13:00:00;11.50;99.90
21481;DHT22;10902;48.158;8.634;2023-04-24T13:02:29;12.20;99.90
21481;DHT22;10902;48.158;8.634;2023-04-24T13:04:56;11.90;99.90
21481;DHT22;10902;48.158;8.634;2023-04-24T13:07:22;11.50;99.90
21481;DHT22;10902;48.158;8.634;2023-04-24T13:09:49;11.70;99.90
21481;DHT22;10902;48.158;8.634;2023-04-24T13:12:15;12.20;99.90
21481;DHT22;10902;48.158;8.634;2023-04-24T13:14:40;12.90;99.90
21481;DHT22;10902;48.158;8.634;2023-04-24T13:17:06;12.70;99.90
21481;DHT22;10902;48.158;8.634;2023-04-24T13:19:37;12.90;99.90
21481;DHT22;10902;48.158;8.634;2023-04-24T13:22:03;11.80;99.90
21481;DHT22;10902;48.158;8.634;2023-04-24T13:24:29;12.30;99.90
21481;DHT22;10902;48.158;8.634;2023-04-24T13:26:54;11.90;99.90
21481;DHT22;10902;48.158;8.634;2023-04-24T13:29:22;12.60;99.90
21481;DHT22;10902;48.158;8.634;2023-04-24T13:31:50;11.30;99.90
21481;DHT22;10902;48.158;8.634;2023-04-24T13:34:16;10.80;99.90
21481;DHT22;10902;48.158;8.634;2023-04-24T13:36:42;10.00;99.90
21481;DHT22;10902;48.158;8.634;2023-04-24T13:39:08;10.00;99.90
21481;DHT22;10902;48.158;8.634;2023-04-24T13:41:34;10.20;99.90
21481;DHT22;10902;48.158;8.634;2023-04-24T13:44:00;10.20;99.90
21481;DHT22;10902;48.158;8.634;2023-04-24T13:46:26;10.20;99.90
21481;DHT22;10902;48.158;8.634;2023-04-24T13:48:52;10.60;99.90
21481;DHT22;10902;48.158;8.634;2023-04-24T13:51:18;10.90;99.90
21481;DHT22;10902;48.158;8.634;2023-04-24T13:53:43;11.80;99.90
21481;DHT22;10902;48.158;8.634;2023-04-24T13:56:09;12.10;99.90
21481;DHT22;10902;48.158;8.634;2023-04-24T13:58:35;12.70;99.90
21481;DHT22;10902;48.158;8.634;2023-04-24T14:01:02;13.40;99.90
21481;DHT22;10902;48.158;8.634;2023-04-24T14:03:28;13.00;99.90
21481;DHT22;10902;48.158;8.634;2023-04-24T14:05:54;12.30;99.90
21481;DHT22;10902;48.158;8.634;2023-04-24T14:08:20;12.20;99.90
21481;DHT22;10902;48.158;8.634;2023-04-24T14:10:45;12.50;99.90
21481;DHT22;10902;48.158;8.634;2023-04-24T14:13:11;12.20;99.90
21481;DHT22;10902;48.158;8.634;2023-04-24T14:15:37;11.70;99.90
21481;DHT22;10902;48.158;8.634;2023-04-24T14:18:03;11.20;99.90
21481;DHT22;10902;48.158;8.634;2023-04-24T14:20:29;10.40;99.90
21481;DHT22;10902;48.158;8.634;2023-04-24T14:22:54;10.70;99.90
21481;DHT22;10902;48.158;8.634;2023-04-24T14:25:20;10.90;99.90
21481;DHT22;10902;48.158;8.634;2023-04-24T14:27:47;10.90;99.90
21481;DHT22;10902;48.158;8.634;2023-04-24T14:30:13;11.00;99.90
21481;DHT22;10902;48.158;8.634;2023-04-24T14:32:40;10.90;99.90
21481;DHT22;10902;48.158;8.634;2023-04-24T14:35:06;10.80;99.90
21481;DHT22;10902;48.158;8.634;2023-04-24T14:37:32;10.30;99.90
21481;DHT22;10902;48.158;8.634;2023-04-24T14:39:58;10.70;99.90
21481;DHT22;10902;48.158;8.634;2023-04-24T14:42:24;11.60;99.90
21481;DHT22;10902;48.158;8.634;2023-04-24T14:44:49;11.90;99.90
21481;DHT22;10902;48.158;8.634;2023-04-24T14:47:15;11.10;99.90
21481;DHT22;10902;48.158;8.634;2023-04-24T14:49:43;11.80;99.90
21481;DHT22;10902;48.158;8.634;2023-04-24T14:52:09;11.30;99.90
21481;DHT22;10902;48.158;8.634;2023-04-24T14:54:35;11.50;99.90
21481;DHT22;10902;48.158;8.634;2023-04-24T14:57:01;12.90;99.90
21481;DHT22;10902;48.158;8.634;2023-04-24T14:59:27;14.30;99.90
21481;DHT22;10902;48.158;8.634;2023-04-24T15:01:53;14.90;99.90
21481;DHT22;10902;48.158;8.634;2023-04-24T15:04:25;14.30;99.90
21481;DHT22;10902;48.158;8.634;2023-04-24T15:06:53;12.40;99.90
21481;DHT22;10902;48.158;8.634;2023-04-24T15:09:22;12.80;99.90
21481;DHT22;10902;48.158;8.634;2023-04-24T15:11:49;13.20;99.90
21481;DHT22;10902;48.158;8.634;2023-04-24T15:14:16;13.90;99.90
21481;DHT22;10902;48.158;8.634;2023-04-24T15:16:41;13.20;99.90
21481;DHT22;10902;48.158;8.634;2023-04-24T15:19:07;14.30;99.90
21481;DHT22;10902;48.158;8.634;2023-04-24T15:21:33;14.80;99.90
21481;DHT22;10902;48.158;8.634;2023-04-24T15:23:59;13.50;99.90
21481;DHT22;10902;48.158;8.634;2023-04-24T15:26:24;11.40;99.90
21481;DHT22;10902;48.158;8.634;2023-04-24T15:28:51;11.10;99.90
21481;DHT22;10902;48.158;8.634;2023-04-24T15:31:17;11.80;99.90
21481;DHT22;10902;48.158;8.634;2023-04-24T15:33:43;11.70;99.90
21481;DHT22;10902;48.158;8.634;2023-04-24T15:36:09;11.00;99.90
21481;DHT22;10902;48.158;8.634;2023-04-24T15:38:35;11.00;99.90
21481;DHT22;10902;48.158;8.634;2023-04-24T15:41:01;11.10;99.90
21481;DHT22;10902;48.158;8.634;2023-04-24T15:43:26;10.70;99.90
21481;DHT22;10902;48.158;8.634;2023-04-24T15:45:55;9.80;99.90
21481;DHT22;10902;48.158;8.634;2023-04-24T15:48:21;8.60;99.90
21481;DHT22;10902;48.158;8.634;2023-04-24T15:50:46;7.70;99.90
21481;DHT22;10902;48.158;8.634;2023-04-24T15:53:12;7.20;99.90
21481;DHT22;10902;48.158;8.634;2023-04-24T15:55:38;7.10;99.90
21481;DHT22;10902;48.158;8.634;2023-04-24T15:58:03;6.80;99.90
21481;DHT22;10902;48.158;8.634;2023-04-24T16:00:29;6.60;99.90
21481;DHT22;10902;48.158;8.634;2023-04-24T16:03:00;6.30;99.90
21481;DHT22;10902;48.158;8.634;2023-04-24T16:05:25;6.30;99.90
21481;DHT22;10902;48.158;8.634;2023-04-24T16:07:51;6.40;99.90